Time;durP1;ratioP1;P1;durP2;ratioP2;P2;SDS_P1;SDS_P2;PMS_P1;PMS_P2;Temp;Humidity;BMP_temperature;BMP_pressure;BME280_temperature;BME280_humidity;BME280_pressure;Samples;Min_cycle;Max_cycle;Signal;HPM_P1;HPM_P2
2023/09/30 00:00:37;;;;;;;11.30;1.88;;;13.80;84.40;;;;;;5063099;28;20041;-72
2023/09/30 00:03:03;;;;;;;12.90;2.63;;;13.80;84.80;;;;;;5056813;28;20044;-72
2023/09/30 00:05:29;;;;;;;16.13;1.90;;;13.70;84.90;;;;;;5065188;28;20021;-73
2023/09/30 00:07:54;;;;;;;12.02;2.08;;;13.70;85.20;;;;;;5057566;28;20028;-72
2023/09/30 00:10:20;;;;;;;10.00;2.15;;;13.60;85.20;;;;;;5074215;28;20024;-72
2023/09/30 00:12:46;;;;;;;12.50;1.92;;;13.60;85.40;;;;;;5050702;28;20059;-72
2023/09/30 00:15:11;;;;;;;14.70;2.17;;;13.60;85.40;;;;;;5069780;28;20040;-72
2023/09/30 00:17:37;;;;;;;19.13;2.13;;;13.60;85.30;;;;;;5056976;28;20032;-72
2023/09/30 00:20:04;;;;;;;12.95;1.92;;;13.60;85.40;;;;;;5066680;28;20306;-71
2023/09/30 00:22:29;;;;;;;9.10;1.85;;;13.50;85.40;;;;;;5058504;28;20047;-72
2023/09/30 00:24:55;;;;;;;11.07;1.98;;;13.60;85.60;;;;;;5073893;28;20676;-72
2023/09/30 00:27:21;;;;;;;11.93;1.75;;;13.60;85.60;;;;;;5057211;28;20036;-72
2023/09/30 00:29:46;;;;;;;14.40;2.33;;;13.60;85.50;;;;;;5073849;28;20115;-73
2023/09/30 00:32:12;;;;;;;14.55;2.08;;;13.60;85.60;;;;;;5070061;28;20040;-73
2023/09/30 00:34:38;;;;;;;9.45;1.95;;;13.60;85.70;;;;;;5056901;28;20058;-73
2023/09/30 00:37:03;;;;;;;10.35;1.60;;;13.60;85.80;;;;;;5076597;28;20183;-72
2023/09/30 00:39:30;;;;;;;16.75;2.03;;;13.50;86.20;;;;;;5057034;28;20119;-72
2023/09/30 00:41:59;;;;;;;10.23;2.20;;;13.50;86.60;;;;;;5073989;28;20041;-73
2023/09/30 00:44:25;;;;;;;9.02;2.35;;;13.40;86.90;;;;;;5063091;28;20115;-72
2023/09/30 00:46:52;;;;;;;11.70;1.70;;;13.40;87.00;;;;;;5068307;28;21166;-72
2023/09/30 00:49:18;;;;;;;12.48;1.88;;;13.40;86.90;;;;;;5058371;28;20028;-73
2023/09/30 00:51:46;;;;;;;10.48;1.92;;;13.40;87.00;;;;;;5067067;28;20081;-73
2023/09/30 00:54:12;;;;;;;9.43;1.60;;;13.40;87.20;;;;;;5055773;28;20447;-73
2023/09/30 00:56:45;;;;;;;11.40;1.88;;;13.30;87.40;;;;;;5075125;28;20036;-73
2023/09/30 00:59:13;;;;;;;10.40;1.95;;;13.20;87.80;;;;;;5056798;28;21107;-73
2023/09/30 01:01:39;;;;;;;11.07;2.20;;;13.20;88.10;;;;;;5071298;28;20458;-73
2023/09/30 01:04:05;;;;;;;11.45;1.95;;;13.10;88.10;;;;;;5059641;28;20757;-74
2023/09/30 01:06:31;;;;;;;9.85;2.00;;;13.10;88.10;;;;;;5068680;28;20028;-73
2023/09/30 01:08:57;;;;;;;13.20;2.30;;;13.10;88.20;;;;;;5062882;28;20306;-73
2023/09/30 01:11:23;;;;;;;15.43;2.28;;;13.10;88.20;;;;;;5070515;28;20565;-72
2023/09/30 01:13:49;;;;;;;15.70;2.30;;;13.10;88.50;;;;;;5058734;28;20431;-73
2023/09/30 01:16:15;;;;;;;7.63;1.77;;;13.10;88.70;;;;;;5067612;28;20843;-73
2023/09/30 01:18:42;;;;;;;13.98;1.52;;;13.10;88.70;;;;;;5065355;28;20057;-73
2023/09/30 01:21:09;;;;;;;13.75;2.30;;;13.10;88.40;;;;;;5051928;28;20560;-73
2023/09/30 01:23:35;;;;;;;13.05;1.88;;;13.20;88.00;;;;;;5069704;28;20063;-73
2023/09/30 01:26:03;;;;;;;17.63;2.00;;;13.30;87.60;;;;;;5054533;28;20206;-73
2023/09/30 01:28:31;;;;;;;18.50;2.88;;;13.30;87.70;;;;;;5071385;28;20032;-73
2023/09/30 01:30:57;;;;;;;15.68;2.83;;;13.30;87.80;;;;;;5061530;28;20028;-73
2023/09/30 01:33:23;;;;;;;13.15;2.55;;;13.20;87.80;;;;;;5069196;28;20165;-73
2023/09/30 01:35:48;;;;;;;17.05;3.40;;;13.20;88.10;;;;;;5058035;28;20036;-73
2023/09/30 01:38:14;;;;;;;14.20;2.70;;;13.10;88.50;;;;;;5076229;28;20070;-73
2023/09/30 01:40:40;;;;;;;16.88;2.95;;;13.10;88.80;;;;;;5052408;28;20102;-73
2023/09/30 01:43:06;;;;;;;8.30;1.90;;;13.00;89.40;;;;;;5071734;28;20036;-73
2023/09/30 01:45:31;;;;;;;14.52;2.30;;;12.90;90.00;;;;;;5054178;28;20407;-72
2023/09/30 01:47:57;;;;;;;12.38;2.55;;;12.80;90.20;;;;;;5069386;28;20094;-72
2023/09/30 01:50:22;;;;;;;17.00;2.10;;;12.70;90.30;;;;;;5055729;28;20810;-74
2023/09/30 01:52:48;;;;;;;12.27;1.88;;;12.70;90.30;;;;;;5062623;28;20065;-73
2023/09/30 01:55:14;;;;;;;18.48;3.10;;;12.60;90.40;;;;;;5058659;28;20345;-72
2023/09/30 01:57:39;;;;;;;10.70;1.83;;;12.60;90.60;;;;;;5071857;28;20111;-72
2023/09/30 02:00:08;;;;;;;13.93;2.03;;;12.50;90.60;;;;;;5069089;28;20045;-74
2023/09/30 02:02:35;;;;;;;13.30;2.75;;;12.50;90.70;;;;;;5045805;28;20680;-73
2023/09/30 02:05:00;;;;;;;10.82;1.85;;;12.40;90.80;;;;;;5068197;28;20119;-71
2023/09/30 02:07:26;;;;;;;16.60;2.40;;;12.40;90.70;;;;;;5048292;28;20036;-72
2023/09/30 02:09:52;;;;;;;12.95;1.70;;;12.40;90.70;;;;;;5070034;28;20058;-71
2023/09/30 02:12:17;;;;;;;9.77;1.88;;;12.30;90.90;;;;;;5053234;28;20028;-72
2023/09/30 02:14:43;;;;;;;18.52;2.30;;;12.20;91.00;;;;;;5067301;28;20090;-72
2023/09/30 02:17:09;;;;;;;14.65;2.15;;;12.20;91.10;;;;;;5052772;28;21141;-73
2023/09/30 02:19:34;;;;;;;18.45;2.08;;;12.20;91.20;;;;;;5063523;28;20044;-73
2023/09/30 02:22:00;;;;;;;11.50;2.47;;;12.10;91.20;;;;;;5048387;28;20051;-73
2023/09/30 02:24:26;;;;;;;16.13;2.30;;;12.10;91.60;;;;;;5063631;28;20033;-73
2023/09/30 02:26:52;;;;;;;21.88;2.65;;;12.10;91.40;;;;;;5052873;28;20113;-73
2023/09/30 02:29:18;;;;;;;10.80;2.20;;;12.10;91.50;;;;;;5069444;28;20036;-73
2023/09/30 02:31:43;;;;;;;17.85;2.28;;;12.00;91.60;;;;;;5055604;28;20105;-73
2023/09/30 02:34:09;;;;;;;10.32;2.15;;;12.00;91.70;;;;;;5067006;28;20032;-73
2023/09/30 02:36:39;;;;;;;13.38;2.63;;;11.90;91.80;;;;;;5059465;28;20067;-72
2023/09/30 02:39:05;;;;;;;11.05;1.90;;;11.90;91.60;;;;;;5065537;28;20055;-72
2023/09/30 02:41:31;;;;;;;13.18;2.47;;;11.70;92.00;;;;;;5069750;28;20128;-72
2023/09/30 02:43:57;;;;;;;12.88;1.80;;;11.70;91.80;;;;;;5059793;28;20032;-73
2023/09/30 02:46:23;;;;;;;16.40;2.10;;;11.60;92.00;;;;;;5067228;28;20364;-73
2023/09/30 02:48:49;;;;;;;14.45;2.88;;;11.60;92.20;;;;;;5056464;28;20035;-73
2023/09/30 02:51:14;;;;;;;13.90;1.67;;;11.60;92.30;;;;;;5069210;28;20032;-73
2023/09/30 02:53:40;;;;;;;13.35;1.90;;;11.50;92.40;;;;;;5050335;28;20034;-72
2023/09/30 02:56:06;;;;;;;16.85;1.77;;;11.40;92.60;;;;;;5070980;28;20021;-73
2023/09/30 02:58:32;;;;;;;13.35;2.35;;;11.30;92.60;;;;;;5057324;28;20032;-73
2023/09/30 03:00:59;;;;;;;14.10;1.90;;;11.40;92.70;;;;;;5062972;28;20117;-74
2023/09/30 03:03:25;;;;;;;21.05;2.03;;;11.30;92.60;;;;;;5058717;28;20036;-72
2023/09/30 03:05:51;;;;;;;7.88;1.50;;;11.30;92.50;;;;;;5072882;28;20092;-72
2023/09/30 03:08:17;;;;;;;9.85;1.80;;;11.20;92.70;;;;;;5062398;28;20032;-73
2023/09/30 03:10:43;;;;;;;21.98;2.85;;;11.20;92.90;;;;;;5067221;28;20032;-72
2023/09/30 03:13:08;;;;;;;10.40;1.63;;;11.10;92.90;;;;;;5053357;28;20054;-71
2023/09/30 03:15:35;;;;;;;14.13;2.08;;;11.10;93.20;;;;;;5072515;28;20509;-72
2023/09/30 03:18:01;;;;;;;19.23;2.20;;;11.10;93.30;;;;;;5052027;28;21318;-72
2023/09/30 03:20:27;;;;;;;12.98;1.73;;;11.00;93.30;;;;;;5064534;28;20044;-73
2023/09/30 03:22:52;;;;;;;10.68;1.77;;;11.00;93.30;;;;;;5069735;28;20047;-73
2023/09/30 03:25:20;;;;;;;14.02;1.70;;;11.00;93.30;;;;;;5055493;28;20034;-73
2023/09/30 03:27:47;;;;;;;13.07;1.70;;;10.90;93.20;;;;;;5064922;28;20575;-73
2023/09/30 03:30:14;;;;;;;8.60;1.60;;;10.90;93.40;;;;;;5056702;28;20028;-73
2023/09/30 03:32:39;;;;;;;10.02;1.63;;;10.90;93.50;;;;;;5067381;28;20066;-73
2023/09/30 03:35:07;;;;;;;13.93;1.83;;;10.90;93.50;;;;;;5052767;28;20376;-73
2023/09/30 03:37:32;;;;;;;18.15;2.00;;;10.90;93.40;;;;;;5072222;28;20037;-73
2023/09/30 03:39:58;;;;;;;10.05;2.28;;;10.90;93.40;;;;;;5053236;28;20024;-72
2023/09/30 03:42:24;;;;;;;13.02;1.45;;;10.80;93.40;;;;;;5069193;28;20028;-72
2023/09/30 03:44:50;;;;;;;22.40;2.38;;;10.80;93.50;;;;;;5058465;28;20016;-74
2023/09/30 03:47:16;;;;;;;13.57;2.00;;;10.80;93.40;;;;;;5066239;28;20184;-73
2023/09/30 03:49:42;;;;;;;17.08;1.88;;;10.80;93.50;;;;;;5060445;28;20476;-73
2023/09/30 03:52:09;;;;;;;16.15;2.42;;;10.80;93.70;;;;;;5065763;28;20035;-73
2023/09/30 03:54:35;;;;;;;13.70;1.70;;;10.70;93.60;;;;;;5048789;28;20067;-73
2023/09/30 03:57:01;;;;;;;15.27;2.40;;;10.60;93.30;;;;;;5069709;28;20123;-73
2023/09/30 03:59:27;;;;;;;9.30;1.65;;;10.60;93.30;;;;;;5054271;28;20036;-73
2023/09/30 04:01:53;;;;;;;8.27;1.90;;;10.60;93.40;;;;;;5066728;28;20066;-73
2023/09/30 04:04:21;;;;;;;10.60;1.90;;;10.50;93.40;;;;;;5070058;28;20026;-73
2023/09/30 04:06:47;;;;;;;14.57;2.40;;;10.60;93.60;;;;;;5060290;28;20113;-72
2023/09/30 04:09:13;;;;;;;15.77;1.88;;;10.50;93.50;;;;;;5072902;28;20028;-73
2023/09/30 04:11:39;;;;;;;13.38;2.03;;;10.50;93.80;;;;;;5058893;28;20040;-73
2023/09/30 04:14:07;;;;;;;12.55;1.90;;;10.60;93.80;;;;;;5063567;28;20027;-73
2023/09/30 04:16:33;;;;;;;15.13;1.55;;;10.60;93.80;;;;;;5053965;28;20077;-74
2023/09/30 04:19:00;;;;;;;18.70;2.20;;;10.70;93.90;;;;;;5072333;28;20063;-73
2023/09/30 04:21:27;;;;;;;12.93;1.80;;;10.70;93.90;;;;;;5056806;28;20039;-72
2023/09/30 04:23:53;;;;;;;9.85;2.10;;;10.80;94.30;;;;;;5072375;28;20286;-73
2023/09/30 04:26:19;;;;;;;14.20;1.80;;;10.80;93.90;;;;;;5055160;28;20111;-73
2023/09/30 04:28:45;;;;;;;10.07;1.70;;;10.90;93.90;;;;;;5063828;28;20024;-73
2023/09/30 04:31:13;;;;;;;18.95;2.05;;;10.90;93.60;;;;;;5054937;28;20032;-73
2023/09/30 04:33:39;;;;;;;11.13;2.08;;;11.00;93.60;;;;;;5065079;28;20115;-72
2023/09/30 04:36:10;;;;;;;12.20;2.30;;;11.00;93.70;;;;;;5053067;28;20063;-73
2023/09/30 04:38:39;;;;;;;9.55;1.75;;;11.10;93.70;;;;;;5073350;28;20036;-73
2023/09/30 04:41:07;;;;;;;10.75;1.70;;;11.20;93.40;;;;;;5050894;28;20028;-72
2023/09/30 04:43:33;;;;;;;14.48;2.00;;;11.20;93.20;;;;;;5075616;28;20557;-73
2023/09/30 04:45:58;;;;;;;13.27;1.95;;;11.20;93.00;;;;;;5054515;28;20025;-74
2023/09/30 04:48:25;;;;;;;17.20;2.20;;;11.30;93.00;;;;;;5065186;28;20081;-73
2023/09/30 04:50:52;;;;;;;11.45;2.42;;;11.30;93.20;;;;;;5068905;28;20553;-71
2023/09/30 04:53:18;;;;;;;14.00;1.80;;;11.30;93.10;;;;;;5056799;28;20036;-72
2023/09/30 04:55:44;;;;;;;13.70;2.00;;;11.30;93.00;;;;;;5067233;28;20032;-72
2023/09/30 04:58:11;;;;;;;10.05;2.03;;;11.40;93.00;;;;;;5054912;28;20032;-72
2023/09/30 05:00:37;;;;;;;12.52;1.92;;;11.40;93.00;;;;;;5063300;28;20938;-72
2023/09/30 05:03:02;;;;;;;11.60;1.83;;;11.50;92.70;;;;;;5057199;28;20170;-72
2023/09/30 05:05:28;;;;;;;11.65;1.65;;;11.50;92.50;;;;;;5074927;28;20035;-72
2023/09/30 05:07:54;;;;;;;9.57;1.95;;;11.60;92.30;;;;;;5058936;28;20554;-72
2023/09/30 05:10:20;;;;;;;13.70;2.45;;;11.50;92.40;;;;;;5068908;28;20032;-72
2023/09/30 05:12:46;;;;;;;14.60;2.30;;;11.40;92.50;;;;;;5063732;28;20532;-72
2023/09/30 05:15:15;;;;;;;16.00;3.45;;;11.40;92.90;;;;;;5068558;28;20024;-72
2023/09/30 05:17:43;;;;;;;24.33;2.58;;;11.40;93.00;;;;;;5057741;28;20032;-72
2023/09/30 05:20:12;;;;;;;12.88;2.50;;;11.50;92.80;;;;;;5068214;28;20488;-73
2023/09/30 05:22:40;;;;;;;17.05;2.83;;;11.50;92.70;;;;;;5057019;28;20518;-72
2023/09/30 05:25:06;;;;;;;13.48;2.75;;;11.70;92.40;;;;;;5073945;28;20391;-72
2023/09/30 05:27:32;;;;;;;14.50;2.03;;;11.70;92.20;;;;;;5054822;28;20036;-72
2023/09/30 05:29:58;;;;;;;16.70;2.63;;;11.80;92.10;;;;;;5071612;28;20032;-73
2023/09/30 05:32:24;;;;;;;11.73;1.60;;;11.80;92.00;;;;;;5063058;28;20546;-72
2023/09/30 05:34:53;;;;;;;13.05;2.10;;;11.90;91.90;;;;;;5064058;28;20491;-72
2023/09/30 05:37:21;;;;;;;11.47;1.50;;;11.90;91.70;;;;;;5072787;28;20029;-72
2023/09/30 05:39:48;;;;;;;11.25;1.90;;;11.90;91.80;;;;;;5056791;28;20276;-72
2023/09/30 05:42:15;;;;;;;12.43;1.88;;;12.00;91.90;;;;;;5076843;28;20024;-72
2023/09/30 05:44:42;;;;;;;13.93;1.63;;;12.00;91.90;;;;;;5062887;28;20036;-73
2023/09/30 05:47:08;;;;;;;14.43;1.65;;;11.90;91.80;;;;;;5068187;28;20024;-72
2023/09/30 05:49:34;;;;;;;12.27;1.65;;;11.80;91.90;;;;;;5056611;28;20028;-73
2023/09/30 05:51:59;;;;;;;12.15;2.42;;;11.80;91.90;;;;;;5070028;28;20036;-73
2023/09/30 05:54:25;;;;;;;8.95;1.88;;;11.70;91.70;;;;;;5053463;28;20511;-73
2023/09/30 05:56:51;;;;;;;11.20;2.45;;;11.60;92.00;;;;;;5072295;28;20036;-74
2023/09/30 05:59:16;;;;;;;15.27;2.13;;;11.50;92.30;;;;;;5060658;28;20377;-73
2023/09/30 06:01:42;;;;;;;9.00;1.60;;;11.40;92.60;;;;;;5068471;28;20032;-72
2023/09/30 06:04:08;;;;;;;8.52;1.50;;;11.30;92.90;;;;;;5058087;28;20245;-72
2023/09/30 06:06:34;;;;;;;16.55;2.15;;;11.20;93.00;;;;;;5073401;28;20033;-74
2023/09/30 06:08:59;;;;;;;8.52;1.65;;;11.10;92.90;;;;;;5040023;28;20035;-73
2023/09/30 06:11:28;;;;;;;9.68;1.73;;;11.00;92.80;;;;;;5072123;28;20035;-72
2023/09/30 06:13:55;;;;;;;9.17;1.63;;;11.00;93.00;;;;;;5052627;28;20059;-72
2023/09/30 06:16:21;;;;;;;9.35;1.88;;;10.90;93.60;;;;;;5067617;28;20104;-73
2023/09/30 06:18:48;;;;;;;14.98;2.28;;;10.90;93.30;;;;;;5060842;28;20045;-72
2023/09/30 06:21:14;;;;;;;13.65;1.85;;;10.80;93.70;;;;;;5051519;28;20028;-72
2023/09/30 06:23:40;;;;;;;12.93;2.22;;;10.80;94.00;;;;;;5066082;28;20027;-73
2023/09/30 06:26:06;;;;;;;17.42;3.00;;;10.80;93.80;;;;;;5059511;28;20028;-74
2023/09/30 06:28:33;;;;;;;11.00;2.08;;;10.80;93.60;;;;;;5067279;28;20468;-74
2023/09/30 06:30:59;;;;;;;9.82;1.73;;;10.80;93.60;;;;;;5058563;28;20059;-72
2023/09/30 06:33:29;;;;;;;10.43;1.50;;;10.80;93.70;;;;;;5071904;28;20156;-72
2023/09/30 06:35:54;;;;;;;;;;;10.80;93.80;;;;;;5051866;28;20761;-72
2023/09/30 06:38:21;;;;;;;13.32;1.73;;;10.90;93.90;;;;;;5072226;28;19946;-73
2023/09/30 06:40:47;;;;;;;14.27;2.15;;;10.90;93.70;;;;;;5053421;28;20612;-73
2023/09/30 06:43:15;;;;;;;9.32;1.60;;;10.90;93.60;;;;;;5068828;28;20028;-73
2023/09/30 06:45:43;;;;;;;14.98;2.17;;;10.90;93.50;;;;;;5062403;28;20040;-72
2023/09/30 06:48:12;;;;;;;12.80;2.05;;;11.00;93.60;;;;;;5048598;28;20035;-73
2023/09/30 06:50:40;;;;;;;;;;;11.00;93.40;;;;;;5058249;28;20873;-73
2023/09/30 06:53:06;;;;;;;14.90;1.60;;;11.00;93.40;;;;;;5068155;28;20066;-74
2023/09/30 06:55:31;;;;;;;12.73;1.50;;;11.10;93.40;;;;;;5048917;28;20083;-73
2023/09/30 06:57:57;;;;;;;17.98;2.90;;;11.10;93.20;;;;;;5068283;28;20065;-73
2023/09/30 07:00:25;;;;;;;11.98;2.22;;;11.10;93.30;;;;;;5052980;28;20032;-73
2023/09/30 07:02:50;;;;;;;12.45;2.00;;;11.20;93.40;;;;;;5068950;28;20023;-73
2023/09/30 07:05:17;;;;;;;19.52;2.70;;;11.30;93.30;;;;;;5070957;28;20032;-73
2023/09/30 07:07:43;;;;;;;12.07;2.13;;;11.40;93.00;;;;;;5049332;28;20380;-72
2023/09/30 07:10:09;;;;;;;13.25;2.40;;;11.40;92.90;;;;;;5066052;28;20448;-73
2023/09/30 07:12:36;;;;;;;14.10;2.70;;;11.50;92.90;;;;;;5057579;28;20032;-72
2023/09/30 07:15:02;;;;;;;15.25;2.25;;;11.50;93.00;;;;;;5065149;28;20043;-72
2023/09/30 07:17:28;;;;;;;13.35;2.25;;;11.60;93.00;;;;;;5060658;28;20060;-72
2023/09/30 07:19:54;;;;;;;13.05;1.55;;;11.70;93.00;;;;;;5071278;28;20080;-73
2023/09/30 07:22:19;;;;;;;12.88;2.08;;;11.70;92.80;;;;;;5053537;28;20031;-72
2023/09/30 07:24:46;;;;;;;14.70;2.50;;;11.80;92.70;;;;;;5070854;28;20062;-72
2023/09/30 07:27:12;;;;;;;10.38;1.67;;;11.90;92.60;;;;;;5055999;28;20028;-72
2023/09/30 07:29:37;;;;;;;14.10;2.33;;;12.10;92.40;;;;;;5064675;28;21495;-72
2023/09/30 07:32:03;;;;;;;12.55;1.90;;;12.20;92.20;;;;;;5055710;28;20051;-72
2023/09/30 07:34:29;;;;;;;16.58;2.13;;;12.40;92.10;;;;;;5067092;28;20040;-72
2023/09/30 07:36:55;;;;;;;12.13;1.90;;;12.60;91.90;;;;;;5055011;28;20035;-72
2023/09/30 07:39:21;;;;;;;8.13;1.92;;;12.70;91.40;;;;;;5067959;28;20025;-72
2023/09/30 07:41:46;;;;;;;15.05;1.85;;;12.90;91.30;;;;;;5052701;28;20039;-72
2023/09/30 07:44:12;;;;;;;13.35;2.17;;;13.00;91.10;;;;;;5071732;28;20089;-72
2023/09/30 07:46:38;;;;;;;9.88;2.40;;;13.30;90.90;;;;;;5072371;28;20078;-72
2023/09/30 07:49:04;;;;;;;16.23;2.10;;;13.50;90.60;;;;;;5050363;28;20037;-72
2023/09/30 07:51:30;;;;;;;13.60;2.20;;;13.70;90.20;;;;;;5068834;28;20042;-73
2023/09/30 07:53:56;;;;;;;11.52;2.42;;;13.90;89.70;;;;;;5052899;28;20027;-72
2023/09/30 07:56:23;;;;;;;12.20;1.98;;;14.00;88.50;;;;;;5067250;28;20112;-72
2023/09/30 07:58:49;;;;;;;8.48;2.10;;;14.20;88.40;;;;;;5055650;28;20042;-72
2023/09/30 08:01:14;;;;;;;17.00;2.40;;;14.30;87.70;;;;;;5064060;28;20032;-72
2023/09/30 08:03:40;;;;;;;10.30;1.95;;;14.60;87.40;;;;;;5053568;28;20107;-73
2023/09/30 08:06:08;;;;;;;15.85;2.55;;;14.70;86.60;;;;;;5068129;28;21527;-73
2023/09/30 08:08:35;;;;;;;11.13;2.22;;;14.90;86.00;;;;;;5046277;28;20074;-72
2023/09/30 08:11:00;;;;;;;13.25;2.33;;;15.00;85.40;;;;;;5067278;28;20021;-72
2023/09/30 08:13:27;;;;;;;13.88;3.05;;;15.20;84.70;;;;;;5054869;28;20734;-72
2023/09/30 08:15:53;;;;;;;15.45;2.80;;;15.30;84.10;;;;;;5065994;28;20058;-72
2023/09/30 08:18:19;;;;;;;11.65;2.25;;;15.60;83.00;;;;;;5056323;28;20136;-73
2023/09/30 08:20:45;;;;;;;12.23;2.13;;;15.70;81.20;;;;;;5066945;28;20032;-73
2023/09/30 08:23:11;;;;;;;15.80;2.33;;;15.90;80.60;;;;;;5052859;28;20020;-73
2023/09/30 08:25:37;;;;;;;12.13;2.42;;;16.00;79.60;;;;;;5066633;28;20035;-72
2023/09/30 08:28:04;;;;;;;15.63;2.50;;;16.20;78.40;;;;;;5065225;28;20031;-73
2023/09/30 08:30:30;;;;;;;12.52;2.13;;;16.40;77.20;;;;;;5059014;28;20024;-74
2023/09/30 08:32:56;;;;;;;14.02;1.63;;;16.40;76.10;;;;;;5067007;28;20032;-73
2023/09/30 08:35:21;;;;;;;17.27;2.47;;;16.60;75.70;;;;;;5052151;28;20147;-73
2023/09/30 08:37:47;;;;;;;11.68;2.10;;;16.70;73.70;;;;;;5071958;28;20028;-73
2023/09/30 08:40:13;;;;;;;14.90;1.77;;;16.90;72.40;;;;;;5058763;28;20036;-74
2023/09/30 08:42:39;;;;;;;17.27;2.22;;;16.90;71.20;;;;;;5065188;28;20438;-72
2023/09/30 08:45:09;;;;;;;17.13;3.20;;;17.00;70.90;;;;;;5062325;28;20032;-73
2023/09/30 08:47:36;;;;;;;12.15;2.20;;;17.10;69.90;;;;;;5072644;28;20088;-72
2023/09/30 08:50:06;;;;;;;14.55;2.22;;;17.20;69.20;;;;;;5059042;28;20063;-72
2023/09/30 08:52:33;;;;;;;10.75;2.15;;;17.10;70.30;;;;;;5074024;28;20040;-72
2023/09/30 08:54:59;;;;;;;11.88;2.03;;;17.10;71.00;;;;;;5053148;28;20116;-73
2023/09/30 08:57:26;;;;;;;15.07;2.38;;;17.10;71.10;;;;;;5072694;28;20363;-73
2023/09/30 08:59:53;;;;;;;17.63;2.58;;;17.20;70.40;;;;;;5058931;28;20040;-72
2023/09/30 09:02:19;;;;;;;13.20;2.10;;;17.40;70.00;;;;;;5067914;28;20040;-73
2023/09/30 09:04:46;;;;;;;16.77;2.58;;;17.70;68.90;;;;;;5059067;28;20039;-73
2023/09/30 09:07:12;;;;;;;8.13;1.73;;;17.80;68.30;;;;;;5072021;28;20126;-73
2023/09/30 09:09:38;;;;;;;12.27;1.90;;;17.70;68.30;;;;;;5054887;28;20024;-72
2023/09/30 09:12:05;;;;;;;14.15;2.22;;;17.70;68.40;;;;;;5074397;28;20064;-73
2023/09/30 09:14:47;;;;;;;10.85;2.10;;;18.00;67.80;;;;;;5069515;28;21240;-72
2023/09/30 09:17:13;;;;;;;14.57;3.42;;;18.00;66.90;;;;;;5067581;28;20032;-73
2023/09/30 09:19:39;;;;;;;17.17;2.45;;;18.10;67.20;;;;;;5070421;28;20052;-73
2023/09/30 09:22:06;;;;;;;17.05;2.45;;;17.90;68.50;;;;;;5054005;28;20472;-73
2023/09/30 09:24:33;;;;;;;12.23;2.03;;;18.00;68.60;;;;;;5070285;28;20430;-73
2023/09/30 09:27:11;;;;;;;18.55;2.38;;;18.00;68.40;;;;;;5059489;28;20028;-72
2023/09/30 09:29:38;;;;;;;13.98;2.30;;;18.10;68.40;;;;;;5065705;28;20093;-73
2023/09/30 09:32:19;;;;;;;13.95;2.17;;;18.00;67.70;;;;;;5056945;28;20024;-73
2023/09/30 09:34:59;;;;;;;13.15;2.60;;;17.90;68.90;;;;;;5070462;28;20452;-72
2023/09/30 09:37:25;;;;;;;15.45;2.17;;;18.00;68.30;;;;;;5054450;28;20710;-73
2023/09/30 09:39:56;;;;;;;12.98;2.10;;;18.10;68.50;;;;;;5069572;28;20036;-73
2023/09/30 09:42:37;;;;;;;10.90;2.60;;;18.00;69.50;;;;;;5052118;28;20105;-73
2023/09/30 09:45:05;;;;;;;11.30;2.70;;;17.90;70.70;;;;;;5073936;28;20037;-72
2023/09/30 09:47:33;;;;;;;14.57;2.63;;;18.00;70.30;;;;;;5055194;28;20057;-72
2023/09/30 09:50:00;;;;;;;13.88;2.97;;;18.20;70.10;;;;;;5069111;28;21051;-73
2023/09/30 09:52:28;;;;;;;21.10;3.17;;;18.30;69.90;;;;;;5060043;28;20062;-73
2023/09/30 09:54:54;;;;;;;15.45;2.42;;;18.30;69.80;;;;;;5069130;28;20408;-73
2023/09/30 09:57:19;;;;;;;13.50;1.98;;;18.50;69.00;;;;;;5056810;28;20481;-73
2023/09/30 09:59:47;;;;;;;8.48;1.90;;;18.80;67.40;;;;;;5071401;28;20036;-73
2023/09/30 10:02:15;;;;;;;12.93;1.98;;;18.80;66.70;;;;;;5052674;28;20381;-72
2023/09/30 10:04:43;;;;;;;11.07;1.75;;;19.10;66.10;;;;;;5071416;28;20058;-73
2023/09/30 10:07:14;;;;;;;11.60;2.17;;;19.20;66.50;;;;;;5055607;28;20054;-72
2023/09/30 10:09:45;;;;;;;14.07;2.13;;;19.00;65.50;;;;;;5066574;28;20480;-73
2023/09/30 10:12:12;;;;;;;18.55;2.40;;;18.90;66.30;;;;;;5057201;28;20059;-73
2023/09/30 10:14:38;;;;;;;12.57;2.38;;;19.00;66.70;;;;;;5072791;28;20035;-73
2023/09/30 10:17:04;;;;;;;10.52;2.17;;;19.10;66.90;;;;;;5052434;28;20431;-72
2023/09/30 10:19:32;;;;;;;14.32;2.17;;;19.30;66.80;;;;;;5071002;28;20060;-73
2023/09/30 10:22:21;;;;;;;11.82;1.88;;;19.30;65.00;;;;;;5055042;28;20037;-73
2023/09/30 10:24:49;;;;;;;14.95;2.13;;;19.20;66.80;;;;;;5066570;28;20642;-72
2023/09/30 10:27:32;;;;;;;9.90;2.00;;;19.30;66.10;;;;;;5053939;28;20111;-72
2023/09/30 10:29:59;;;;;;;12.20;1.92;;;19.40;66.20;;;;;;5063487;28;20035;-73
2023/09/30 10:33:06;;;;;;;11.20;1.92;;;19.40;66.70;;;;;;5060096;28;20032;-73
2023/09/30 10:35:31;;;;;;;12.38;1.90;;;19.70;64.60;;;;;;5065933;28;20111;-74
2023/09/30 10:38:37;;;;;;;11.73;2.22;;;19.50;64.80;;;;;;5052738;28;20316;-74
2023/09/30 10:41:03;;;;;;;16.17;1.92;;;19.50;65.10;;;;;;5068277;28;20428;-73
2023/09/30 10:43:32;;;;;;;16.55;2.10;;;19.50;64.70;;;;;;5054215;28;20615;-73
2023/09/30 10:45:58;;;;;;;19.65;2.30;;;19.50;65.00;;;;;;5074395;28;20029;-74
2023/09/30 10:48:25;;;;;;;7.70;2.05;;;20.00;63.70;;;;;;5050731;28;20036;-73
2023/09/30 10:50:53;;;;;;;17.65;2.20;;;20.30;63.10;;;;;;5069095;28;20056;-73
2023/09/30 10:53:18;;;;;;;14.43;2.55;;;20.20;62.50;;;;;;5058041;28;20056;-73
2023/09/30 10:55:45;;;;;;;14.75;1.92;;;20.00;63.70;;;;;;5065593;28;20174;-73
2023/09/30 10:58:13;;;;;;;19.05;2.38;;;19.80;64.30;;;;;;5056917;28;20356;-74
2023/09/30 11:00:39;;;;;;;10.23;1.98;;;20.10;64.50;;;;;;5070911;28;20078;-73
2023/09/30 11:03:05;;;;;;;12.00;2.35;;;20.40;62.50;;;;;;5065625;28;20122;-73
2023/09/30 11:05:34;;;;;;;14.43;1.83;;;19.80;65.00;;;;;;5055688;28;20032;-73
2023/09/30 11:08:03;;;;;;;13.32;2.42;;;19.80;65.40;;;;;;5069363;28;20024;-73
2023/09/30 11:10:29;;;;;;;10.05;2.10;;;19.90;65.00;;;;;;5054636;28;20115;-73
2023/09/30 11:12:56;;;;;;;11.27;2.20;;;19.60;66.20;;;;;;5070034;28;20070;-73
2023/09/30 11:15:22;;;;;;;16.02;2.00;;;19.50;67.20;;;;;;5057856;28;20032;-73
2023/09/30 11:17:48;;;;;;;11.80;2.28;;;19.60;66.30;;;;;;5065993;28;20060;-73
2023/09/30 11:20:17;;;;;;;17.27;2.80;;;19.60;66.30;;;;;;5053417;28;20146;-73
2023/09/30 11:22:44;;;;;;;14.07;2.03;;;19.70;64.50;;;;;;5067999;28;20032;-73
2023/09/30 11:25:17;;;;;;;9.13;1.83;;;19.70;64.80;;;;;;5056908;28;20029;-73
2023/09/30 11:27:44;;;;;;;11.50;1.75;;;19.50;65.60;;;;;;5070656;28;20035;-72
2023/09/30 11:30:12;;;;;;;12.75;2.20;;;19.60;65.50;;;;;;5050612;28;20036;-73
2023/09/30 11:32:38;;;;;;;9.73;2.13;;;19.80;64.40;;;;;;5071153;28;20047;-72
2023/09/30 11:35:09;;;;;;;10.73;2.33;;;19.80;64.60;;;;;;5056778;28;20115;-74
2023/09/30 11:37:35;;;;;;;10.60;2.28;;;19.60;64.30;;;;;;5067680;28;20050;-72
2023/09/30 11:40:16;;;;;;;11.27;2.05;;;19.30;66.50;;;;;;5056908;28;20519;-73
2023/09/30 11:42:42;;;;;;;12.50;1.63;;;19.50;67.50;;;;;;5067181;28;20538;-73
2023/09/30 11:45:22;;;;;;;11.27;2.80;;;19.70;66.30;;;;;;5057150;28;20041;-73
2023/09/30 11:47:48;;;;;;;16.63;2.40;;;20.30;64.20;;;;;;5065280;28;20119;-73
2023/09/30 11:50:14;;;;;;;19.83;2.88;;;21.00;63.80;;;;;;5046223;28;20028;-73
2023/09/30 11:52:46;;;;;;;17.58;3.38;;;21.10;62.40;;;;;;5067058;28;20032;-72
2023/09/30 11:55:12;;;;;;;16.17;2.70;;;21.30;61.80;;;;;;5050598;28;20032;-72
2023/09/30 11:57:38;;;;;;;18.17;2.70;;;21.60;59.90;;;;;;5066767;28;20404;-73
2023/09/30 12:00:13;;;;;;;12.23;2.05;;;21.50;60.50;;;;;;5067009;28;20033;-73
2023/09/30 12:02:40;;;;;;;17.48;2.60;;;21.40;60.00;;;;;;5064944;28;20028;-72
2023/09/30 12:05:11;;;;;;;13.80;2.63;;;21.30;59.80;;;;;;5070294;28;20030;-73
2023/09/30 12:07:38;;;;;;;14.13;1.90;;;21.00;60.30;;;;;;5058474;28;20064;-74
2023/09/30 12:10:04;;;;;;;10.40;1.90;;;20.90;61.30;;;;;;5057887;28;20032;-73
2023/09/30 12:12:30;;;;;;;13.93;2.15;;;21.00;61.30;;;;;;5056470;28;20094;-73
2023/09/30 12:14:56;;;;;;;11.63;2.58;;;20.80;61.80;;;;;;5072256;28;20081;-73
2023/09/30 12:17:22;;;;;;;13.48;1.60;;;20.60;62.50;;;;;;5055714;28;20036;-73
2023/09/30 12:19:48;;;;;;;13.80;2.22;;;20.40;63.60;;;;;;5068964;28;20254;-73
2023/09/30 12:22:13;;;;;;;15.95;2.47;;;20.60;62.20;;;;;;5057864;28;20241;-72
2023/09/30 12:24:39;;;;;;;11.57;1.80;;;20.80;62.10;;;;;;5069638;28;20108;-72
2023/09/30 12:27:05;;;;;;;13.68;2.00;;;20.60;62.70;;;;;;5060931;28;20108;-73
2023/09/30 12:29:31;;;;;;;18.75;2.70;;;20.40;64.00;;;;;;5070185;28;20122;-73
2023/09/30 12:31:57;;;;;;;15.50;3.08;;;20.40;63.60;;;;;;5058335;28;20130;-72
2023/09/30 12:34:25;;;;;;;13.40;2.53;;;20.40;63.20;;;;;;5076144;28;20036;-72
2023/09/30 12:36:51;;;;;;;10.60;2.00;;;20.40;64.10;;;;;;5059667;28;21189;-73